Time;durP1;ratioP1;P1;durP2;ratioP2;P2;SDS_P1;SDS_P2;PMS_P1;PMS_P2;Temp;Humidity;BMP_temperature;BMP_pressure;BME280_temperature;BME280_humidity;BME280_pressure;Samples;Min_cycle;Max_cycle;Signal;HPM_P1;HPM_P2
2021/10/26 00:01:55;;;;;;;26.48;14.47;;;;;;;6.19;39.45;102090.80;1727861;82;21021;-62
2021/10/26 00:04:21;;;;;;;29.02;15.65;;;;;;;6.12;39.53;102089.58;1731157;82;22095;-62
2021/10/26 00:06:48;;;;;;;26.27;14.38;;;;;;;6.23;39.21;102089.17;1720521;82;21541;-63
2021/10/26 00:09:15;;;;;;;30.48;15.83;;;;;;;6.07;39.11;102089.44;1728688;82;20941;-63
2021/10/26 00:11:43;;;;;;;31.85;14.85;;;;;;;6.02;39.17;102087.66;1734240;82;20929;-62
2021/10/26 00:14:09;;;;;;;24.00;13.13;;;;;;;5.99;39.08;102082.69;1731540;82;21062;-64
2021/10/26 00:16:36;;;;;;;32.53;14.78;;;;;;;5.66;39.50;102078.54;1727789;82;21097;-63
2021/10/26 00:19:02;;;;;;;28.83;14.28;;;;;;;5.81;39.36;102080.88;1735350;82;21148;-63
2021/10/26 00:21:29;;;;;;;28.73;14.98;;;;;;;5.76;39.41;102086.03;1734105;82;20947;-62
2021/10/26 00:23:55;;;;;;;26.27;14.13;;;;;;;5.63;39.67;102087.33;1702555;82;20991;-65
2021/10/26 00:26:22;;;;;;;25.72;13.45;;;;;;;5.52;39.79;102089.36;1736399;82;21063;-61
2021/10/26 00:28:49;;;;;;;28.12;15.20;;;;;;;5.38;39.96;102088.72;1741856;80;21070;-63
2021/10/26 00:31:15;;;;;;;30.60;15.45;;;;;;;5.30;39.95;102088.72;1742195;82;21103;-62
2021/10/26 00:33:41;;;;;;;32.42;14.68;;;;;;;5.37;39.87;102089.11;1741349;82;21083;-62
2021/10/26 00:36:08;;;;;;;26.73;13.85;;;;;;;5.42;39.86;102088.35;1742227;80;21118;-67
2021/10/26 00:38:36;;;;;;;31.07;15.05;;;;;;;5.54;39.85;102088.80;1742994;80;21111;-62
2021/10/26 00:41:03;;;;;;;23.92;11.60;;;;;;;5.38;40.09;102083.03;1732117;80;21493;-62
2021/10/26 00:43:30;;;;;;;29.48;14.10;;;;;;;5.30;40.41;102080.96;1713382;82;21118;-62
2021/10/26 00:45:58;;;;;;;29.05;14.53;;;;;;;5.27;40.73;102086.80;1701928;82;21612;-68
2021/10/26 00:48:25;;;;;;;30.30;14.65;;;;;;;5.30;40.80;102087.86;1730228;82;22419;-68
2021/10/26 00:50:52;;;;;;;27.13;14.78;;;;;;;5.34;40.84;102095.34;1731969;80;21058;-68
2021/10/26 00:53:20;;;;;;;29.95;14.43;;;;;;;5.58;40.33;102094.59;1742227;80;21454;-62
2021/10/26 00:55:48;;;;;;;23.95;13.05;;;;;;;5.58;40.33;102094.59;1742826;80;21569;-67
2021/10/26 00:58:16;;;;;;;19.37;10.38;;;;;;;5.76;40.29;102092.03;1742595;80;21004;-62
2021/10/26 01:00:43;;;;;;;22.17;10.48;;;;;;;5.77;40.29;102089.80;1742616;80;21058;-62
2021/10/26 01:03:10;;;;;;;25.62;11.57;;;;;;;5.83;40.29;102084.64;1742874;80;20968;-62
2021/10/26 01:05:38;;;;;;;22.13;10.70;;;;;;;5.80;40.37;102092.17;1684514;83;20928;-63
2021/10/26 01:08:06;;;;;;;24.18;13.05;;;;;;;5.75;40.35;102088.23;1673691;83;20984;-69
2021/10/26 01:10:34;;;;;;;23.57;10.40;;;;;;;5.82;40.27;102089.47;1702905;81;21142;-67
2021/10/26 01:13:04;;;;;;;21.35;10.03;;;;;;;5.69;40.47;102091.27;1693119;81;21075;-63
2021/10/26 01:15:33;;;;;;;20.20;9.23;;;;;;;5.69;40.47;102091.27;1692881;81;22400;-63
2021/10/26 01:18:02;;;;;;;18.25;9.08;;;;;;;5.75;40.55;102090.83;1692975;82;21144;-64
2021/10/26 01:20:29;;;;;;;23.62;10.30;;;;;;;5.75;40.55;102090.83;1699065;81;21176;-63
2021/10/26 01:22:56;;;;;;;20.62;10.45;;;;;;;5.85;39.92;102087.97;1693261;82;20985;-63
2021/10/26 01:25:23;;;;;;;21.55;9.68;;;;;;;5.92;39.84;102088.38;1693020;83;21592;-64
2021/10/26 01:27:53;;;;;;;20.25;9.93;;;;;;;5.82;39.85;102090.77;1683368;82;21526;-69
2021/10/26 01:30:28;;;;;;;19.48;9.70;;;;;;;5.80;39.76;102091.36;1690702;82;21381;-68
2021/10/26 01:32:56;;;;;;;17.17;9.13;;;;;;;5.90;39.68;102088.94;1692100;81;21281;-63
2021/10/26 01:35:40;;;;;;;21.48;11.33;;;;;;;5.73;39.88;102096.59;1690071;82;21087;-65
2021/10/26 01:38:07;;;;;;;25.97;12.30;;;;;;;5.73;39.88;102096.59;1695666;81;21071;-66
2021/10/26 01:40:35;;;;;;;20.95;11.25;;;;;;;5.78;39.73;102090.63;1688289;82;21076;-67
2021/10/26 01:43:02;;;;;;;25.60;13.45;;;;;;;5.75;39.76;102096.00;1716162;81;21564;-64
2021/10/26 01:45:29;;;;;;;29.48;13.90;;;;;;;5.67;39.78;102104.77;1719387;81;22169;-63
2021/10/26 01:47:58;;;;;;;24.55;13.60;;;;;;;5.55;39.98;102086.56;1692220;81;21162;-63
2021/10/26 01:50:25;;;;;;;26.45;13.43;;;;;;;5.42;40.01;102087.05;1697317;82;20999;-63
2021/10/26 01:52:51;;;;;;;27.42;13.98;;;;;;;5.43;39.94;102090.00;1712299;81;21026;-63
2021/10/26 01:55:18;;;;;;;29.87;14.58;;;;;;;5.29;40.02;102100.44;1712297;82;21026;-68
2021/10/26 01:57:47;;;;;;;37.20;16.42;;;;;;;5.05;40.31;102089.52;1704254;82;21123;-62
2021/10/26 02:00:20;;;;;;;39.33;18.57;;;;;;;5.05;40.31;102086.94;1704412;82;20999;-63
2021/10/26 02:02:48;;;;;;;38.10;18.90;;;;;;;5.11;40.20;102096.03;1712558;82;21553;-62
2021/10/26 02:05:15;;;;;;;38.33;18.98;;;;;;;5.05;40.45;102094.69;1733018;81;21079;-63
2021/10/26 02:07:42;;;;;;;34.80;18.85;;;;;;;5.00;40.47;102103.23;1731891;81;21034;-63
2021/10/26 02:10:09;;;;;;;35.25;19.10;;;;;;;5.07;40.53;102090.70;1742457;81;21113;-62
2021/10/26 02:12:36;;;;;;;38.33;20.10;;;;;;;5.07;40.53;102090.70;1743288;80;21019;-63
2021/10/26 02:15:05;;;;;;;43.58;19.62;;;;;;;5.14;40.36;102094.53;1742656;81;21079;-62
2021/10/26 02:17:32;;;;;;;41.53;19.40;;;;;;;4.27;41.69;102099.73;1742489;81;21277;-66
2021/10/26 02:20:01;;;;;;;35.35;18.07;;;;;;;4.74;41.13;102100.23;1729227;80;21009;-66
2021/10/26 02:22:28;;;;;;;34.35;18.32;;;;;;;4.94;40.52;102108.78;1710654;81;21168;-67
2021/10/26 02:24:55;;;;;;;30.50;17.57;;;;;;;4.89;40.41;102097.94;1726408;82;21158;-62
2021/10/26 02:27:22;;;;;;;36.03;17.75;;;;;;;4.96;40.30;102096.58;1725983;82;21019;-62
2021/10/26 02:29:49;;;;;;;29.42;15.18;;;;;;;4.94;40.24;102096.33;1724595;82;21170;-62
2021/10/26 02:32:16;;;;;;;27.07;13.72;;;;;;;4.88;40.43;102102.72;1726660;82;20941;-62
2021/10/26 02:34:42;;;;;;;28.57;15.20;;;;;;;4.90;40.50;102099.58;1727720;82;21177;-62
2021/10/26 02:37:09;;;;;;;30.32;15.70;;;;;;;4.98;40.47;102076.64;1725910;83;20949;-62
2021/10/26 02:39:37;;;;;;;34.40;16.23;;;;;;;5.08;40.24;102093.20;1722845;83;20941;-63
2021/10/26 02:42:04;;;;;;;32.03;16.45;;;;;;;5.18;40.23;102096.45;1717583;82;20941;-62
2021/10/26 02:44:32;;;;;;;36.58;17.07;;;;;;;5.23;40.05;102096.99;1727822;82;21012;-62
2021/10/26 02:47:00;;;;;;;35.63;18.52;;;;;;;5.34;39.80;102097.92;1700432;83;21170;-63
2021/10/26 02:49:27;;;;;;;31.80;17.05;;;;;;;5.39;39.72;102098.90;1713844;83;20893;-64
2021/10/26 02:51:55;;;;;;;30.65;15.45;;;;;;;5.36;39.65;102093.92;1725989;82;21072;-63
2021/10/26 02:54:22;;;;;;;34.35;16.27;;;;;;;5.44;39.57;102100.70;1720222;82;21023;-61
2021/10/26 02:56:49;;;;;;;35.33;17.05;;;;;;;5.41;39.48;102094.43;1726050;82;20893;-62
2021/10/26 02:59:18;;;;;;;32.42;17.07;;;;;;;5.26;39.75;102091.59;1724624;83;21220;-68
2021/10/26 03:01:46;;;;;;;30.37;17.17;;;;;;;5.24;39.78;102094.29;1692805;80;21544;-62
2021/10/26 03:04:13;;;;;;;32.05;15.88;;;;;;;5.24;39.78;102094.29;1654975;85;21500;-62
2021/10/26 03:06:40;;;;;;;34.15;16.23;;;;;;;5.20;39.70;102088.14;1674237;84;21477;-62
2021/10/26 03:09:07;;;;;;;31.15;15.88;;;;;;;5.04;39.98;102091.75;1676354;84;22227;-63
2021/10/26 03:11:33;;;;;;;26.52;14.73;;;;;;;4.91;40.43;102092.19;1705108;82;21117;-62
2021/10/26 03:14:01;;;;;;;30.88;15.80;;;;;;;4.97;40.70;102087.91;1705594;82;21027;-62
2021/10/26 03:16:28;;;;;;;31.17;17.00;;;;;;;4.97;40.70;102087.91;1683869;83;21000;-63
2021/10/26 03:18:55;;;;;;;34.18;17.42;;;;;;;4.98;40.76;102084.86;1706135;82;20939;-66
2021/10/26 03:21:22;;;;;;;31.57;15.38;;;;;;;5.03;40.89;102087.96;1705882;82;20940;-63
2021/10/26 03:23:48;;;;;;;26.60;14.43;;;;;;;5.09;40.54;102084.51;1707307;82;21166;-63
2021/10/26 03:26:15;;;;;;;28.90;15.25;;;;;;;5.12;40.14;102088.19;1705150;82;21058;-63
2021/10/26 03:28:42;;;;;;;30.40;17.27;;;;;;;4.99;40.16;102094.27;1708063;82;21088;-63
2021/10/26 03:31:08;;;;;;;34.30;16.25;;;;;;;5.02;40.05;102093.59;1704945;82;21015;-63
2021/10/26 03:33:49;;;;;;;28.73;14.30;;;;;;;5.01;39.98;102096.30;1670032;83;21538;-67
2021/10/26 03:36:15;;;;;;;31.02;15.95;;;;;;;4.90;40.11;102094.88;1705971;82;21971;-66
2021/10/26 03:38:43;;;;;;;30.43;15.53;;;;;;;4.38;40.79;102110.22;1704855;82;21065;-64
2021/10/26 03:41:10;;;;;;;36.98;17.15;;;;;;;4.90;40.27;102104.75;1706687;82;21453;-62
2021/10/26 03:43:40;;;;;;;28.98;16.35;;;;;;;4.88;40.21;102102.72;1703235;82;21301;-62
2021/10/26 03:46:09;;;;;;;33.83;16.70;;;;;;;4.88;40.25;102100.13;1705701;82;20944;-62
2021/10/26 03:48:35;;;;;;;32.90;17.23;;;;;;;4.83;40.29;102102.20;1707385;82;22212;-62
2021/10/26 03:51:02;;;;;;;35.43;17.87;;;;;;;4.84;40.17;102100.80;1708072;82;21628;-67
2021/10/26 03:53:29;;;;;;;30.27;16.20;;;;;;;4.72;40.27;102095.61;1706556;82;21098;-64
2021/10/26 03:55:58;;;;;;;29.92;15.83;;;;;;;4.73;40.32;102102.42;1707942;82;20992;-69
2021/10/26 03:58:25;;;;;;;31.25;15.25;;;;;;;4.71;40.48;102097.37;1710135;82;21530;-65
2021/10/26 04:00:53;;;;;;;29.15;14.65;;;;;;;4.12;41.48;102100.23;1712923;82;21164;-65
2021/10/26 04:03:22;;;;;;;28.98;15.63;;;;;;;4.13;41.73;102101.91;1702649;82;20991;-64
2021/10/26 04:06:14;;;;;;;33.15;16.15;;;;;;;4.09;41.79;102099.16;1709495;82;21095;-65
2021/10/26 04:08:26;;;;;;;28.52;15.45;;;;;;;4.14;41.86;102102.73;1699027;82;21557;-61
2021/10/26 04:10:54;;;;;;;34.25;16.00;;;;;;;4.25;41.83;102105.95;1708521;82;21521;-73
2021/10/26 04:13:22;;;;;;;37.10;16.73;;;;;;;4.37;41.71;102107.75;1705237;82;22359;-73
2021/10/26 04:15:50;;;;;;;33.53;18.62;;;;;;;4.49;41.64;102103.55;1712245;82;20896;-62
2021/10/26 04:18:17;;;;;;;41.65;20.02;;;;;;;4.75;41.55;102103.99;1725585;82;21081;-63
2021/10/26 04:20:44;;;;;;;42.23;21.12;;;;;;;4.69;41.77;102102.27;1707086;82;22331;-66
2021/10/26 04:23:11;;;;;;;36.58;20.43;;;;;;;4.78;41.85;102101.22;1715398;82;21104;-64
2021/10/26 04:25:37;;;;;;;40.85;21.77;;;;;;;5.02;41.72;102102.64;1705764;82;21974;-65
2021/10/26 04:28:04;;;;;;;40.33;19.75;;;;;;;5.18;41.55;102093.87;1724169;82;21039;-65
2021/10/26 04:30:33;;;;;;;40.92;20.10;;;;;;;5.50;41.12;102093.00;1708118;82;20943;-65
2021/10/26 04:33:00;;;;;;;35.68;18.90;;;;;;;5.42;41.22;102102.58;1703100;82;21165;-65
2021/10/26 04:35:28;;;;;;;39.10;19.50;;;;;;;5.86;40.63;102094.79;1702579;82;21624;-71
2021/10/26 04:37:55;;;;;;;31.75;18.42;;;;;;;6.06;40.33;102099.88;1707424;82;21155;-64
2021/10/26 04:40:21;;;;;;;35.70;19.90;;;;;;;6.31;40.16;102097.22;1708411;82;22340;-64
2021/10/26 04:42:48;;;;;;;38.67;20.62;;;;;;;6.48;40.09;102093.42;1704687;82;21027;-71
2021/10/26 04:45:14;;;;;;;39.30;20.17;;;;;;;6.82;40.03;102096.15;1713513;82;21055;-65
2021/10/26 04:47:43;;;;;;;46.48;23.10;;;;;;;7.15;39.76;102098.45;1701556;82;21055;-63
2021/10/26 04:50:12;;;;;;;43.58;21.75;;;;;;;7.25;39.79;102098.11;1703256;82;21112;-66
2021/10/26 04:52:39;;;;;;;43.80;21.77;;;;;;;7.44;39.95;102103.55;1679898;83;21560;-65
2021/10/26 04:55:06;;;;;;;38.05;20.77;;;;;;;7.47;40.14;102092.95;1700959;82;21083;-65
2021/10/26 04:57:33;;;;;;;42.27;20.97;;;;;;;7.71;40.04;102099.30;1707778;82;21090;-71
2021/10/26 05:00:18;;;;;;;52.15;25.40;;;;;;;7.98;39.96;102104.11;1705709;82;21165;-64
2021/10/26 05:02:45;;;;;;;52.93;23.67;;;;;;;8.21;39.73;102094.97;1703566;82;21989;-65
2021/10/26 05:05:12;;;;;;;41.83;21.23;;;;;;;8.50;39.42;102097.87;1705869;82;21680;-64
2021/10/26 05:07:39;;;;;;;43.15;23.15;;;;;;;8.98;38.64;102093.52;1666653;84;21009;-64
2021/10/26 05:10:07;;;;;;;44.80;21.65;;;;;;;8.79;39.01;102096.80;1665734;85;20991;-63
2021/10/26 05:12:35;;;;;;;46.98;25.48;;;;;;;9.07;38.58;102097.11;1646183;84;21030;-70
2021/10/26 05:15:03;;;;;;;54.20;25.90;;;;;;;9.63;37.96;102091.50;1632229;86;21709;-65
2021/10/26 05:17:36;;;;;;;40.38;23.55;;;;;;;9.93;37.46;102095.36;1657110;82;22355;-63
2021/10/26 05:20:09;;;;;;;50.75;27.62;;;;;;;10.00;37.45;102103.47;1645266;84;21000;-64
2021/10/26 05:22:56;;;;;;;41.23;22.73;;;;;;;10.39;36.55;102100.45;1698083;82;21114;-69
2021/10/26 05:25:25;;;;;;;37.75;21.82;;;;;;;10.70;36.41;102096.41;1699576;83;20892;-65
2021/10/26 05:27:58;;;;;;;42.43;22.98;;;;;;;11.60;35.16;102096.38;1712231;82;21152;-66
2021/10/26 05:30:25;;;;;;;39.67;23.60;;;;;;;12.06;34.01;102104.61;1709424;82;21025;-65
2021/10/26 05:32:52;;;;;;;45.48;27.65;;;;;;;12.33;33.42;102101.12;1711410;82;21035;-65
2021/10/26 05:35:19;;;;;;;51.10;29.95;;;;;;;12.98;33.36;102103.44;1708643;82;21039;-66
2021/10/26 05:37:45;;;;;;;53.50;29.15;;;;;;;13.93;32.40;102095.56;1709365;82;21127;-66
2021/10/26 05:40:12;;;;;;;51.90;30.45;;;;;;;14.97;31.22;102095.81;1704919;82;21145;-69
2021/10/26 05:42:39;;;;;;;53.08;31.57;;;;;;;15.94;29.66;102093.02;1702863;82;21093;-69
2021/10/26 05:45:06;;;;;;;58.55;31.45;;;;;;;16.65;28.59;102094.47;1713390;82;21056;-69
2021/10/26 05:47:33;;;;;;;56.03;31.77;;;;;;;17.08;27.17;102089.97;1708355;82;21205;-67
2021/10/26 05:50:01;;;;;;;50.33;33.23;;;;;;;17.38;26.99;102094.23;1707294;82;22735;-68
2021/10/26 05:52:27;;;;;;;53.10;36.67;;;;;;;18.01;26.05;102093.80;1709785;82;21416;-65
2021/10/26 05:54:54;;;;;;;52.17;37.17;;;;;;;18.59;25.18;102091.37;1706725;82;21146;-65
2021/10/26 05:57:20;;;;;;;52.20;33.13;;;;;;;19.17;24.58;102101.27;1713553;82;21364;-65
2021/10/26 05:59:47;;;;;;;57.03;34.90;;;;;;;19.34;24.38;102098.30;1702905;82;22211;-67
2021/10/26 06:02:14;;;;;;;56.33;34.90;;;;;;;19.65;24.10;102097.33;1701191;82;21780;-68
2021/10/26 06:04:41;;;;;;;57.67;37.30;;;;;;;20.04;23.42;102097.16;1706883;82;21788;-69
2021/10/26 06:07:07;;;;;;;60.63;39.87;;;;;;;20.55;22.82;102099.25;1708629;82;21094;-68
2021/10/26 06:09:36;;;;;;;83.27;52.63;;;;;;;21.07;22.64;102089.61;1709421;82;21554;-68
2021/10/26 06:12:06;;;;;;;65.53;47.50;;;;;;;21.21;22.71;102091.70;1703545;82;22249;-67
2021/10/26 06:14:34;;;;;;;69.03;46.67;;;;;;;21.54;22.25;102094.27;1680249;82;21160;-72
2021/10/26 06:17:01;;;;;;;77.03;51.30;;;;;;;22.05;22.03;102088.08;1714333;82;21927;-70
2021/10/26 06:19:29;;;;;;;76.63;52.23;;;;;;;22.04;21.82;102093.58;1710561;82;20996;-69
2021/10/26 06:21:56;;;;;;;65.50;46.60;;;;;;;22.33;21.57;102089.53;1710767;82;21560;-70
2021/10/26 06:24:22;;;;;;;72.63;50.73;;;;;;;22.62;20.86;102095.23;1708014;82;21010;-69
2021/10/26 06:26:50;;;;;;;64.57;42.83;;;;;;;22.82;20.84;102097.98;1709766;82;21095;-68
2021/10/26 06:29:19;;;;;;;61.73;40.43;;;;;;;23.01;20.38;102094.05;1708264;82;21186;-70
2021/10/26 06:31:47;;;;;;;58.97;42.97;;;;;;;23.13;20.35;102089.61;1709233;82;20960;-69
2021/10/26 06:34:14;;;;;;;55.17;39.77;;;;;;;23.47;19.66;102088.70;1705712;83;21123;-69
2021/10/26 06:36:41;;;;;;;56.37;37.83;;;;;;;23.67;19.53;102081.80;1706630;82;21170;-75
2021/10/26 06:39:08;;;;;;;55.30;40.17;;;;;;;24.14;19.09;102084.63;1709979;82;21068;-74
2021/10/26 06:41:34;;;;;;;54.90;39.30;;;;;;;24.31;18.99;102084.22;1687335;82;21109;-72
2021/10/26 06:44:02;;;;;;;57.67;40.77;;;;;;;24.26;18.62;102080.11;1709087;82;20939;-71
2021/10/26 06:46:41;;;;;;;64.80;43.77;;;;;;;24.34;18.57;102077.11;1712201;82;22457;-73
2021/10/26 06:49:28;;;;;;;55.13;41.90;;;;;;;24.27;18.46;102074.55;1706072;82;20987;-73
2021/10/26 06:52:14;;;;;;;51.07;39.57;;;;;;;24.45;18.40;102069.67;1707382;82;21403;-74
2021/10/26 06:54:51;;;;;;;44.17;35.00;;;;;;;24.61;18.36;102068.68;1641168;85;21367;-74
2021/10/26 06:57:36;;;;;;;48.33;34.83;;;;;;;24.80;18.31;102062.17;1711218;82;20998;-70
2021/10/26 07:00:09;;;;;;;47.27;35.20;;;;;;;25.12;17.97;102059.95;1706196;82;21490;-70
2021/10/26 07:02:56;;;;;;;53.17;34.03;;;;;;;25.14;17.86;102060.50;1706795;82;21110;-68
2021/10/26 07:05:40;;;;;;;43.80;30.20;;;;;;;25.23;17.85;102058.30;1705170;82;20995;-71
2021/10/26 07:08:25;;;;;;;37.50;28.53;;;;;;;25.43;17.62;102054.67;1707062;82;21808;-71
2021/10/26 07:10:57;;;;;;;41.13;28.30;;;;;;;25.79;17.20;102053.19;1705538;82;21042;-70
2021/10/26 07:13:25;;;;;;;35.43;27.50;;;;;;;25.90;17.26;102051.78;1700990;82;21032;-70
2021/10/26 07:15:52;;;;;;;37.97;27.47;;;;;;;26.00;17.07;102047.14;1706747;82;21067;-72
2021/10/26 07:18:19;;;;;;;39.00;28.67;;;;;;;26.14;16.81;102045.77;1703082;82;20908;-71
2021/10/26 07:20:46;;;;;;;44.70;30.07;;;;;;;26.17;16.92;102053.28;1701312;82;21192;-70
2021/10/26 07:23:31;;;;;;;37.97;28.30;;;;;;;26.35;16.86;102049.55;1604780;87;21119;-72
2021/10/26 07:26:15;;;;;;;40.43;29.57;;;;;;;26.55;16.70;102052.26;1687752;82;20984;-73
2021/10/26 07:28:42;;;;;;;39.47;28.63;;;;;;;26.66;16.52;102056.70;1706354;82;21015;-73
2021/10/26 07:31:09;;;;;;;38.43;28.30;;;;;;;26.71;16.45;102053.27;1707685;82;21430;-69
2021/10/26 07:33:36;;;;;;;40.20;27.03;;;;;;;26.90;16.19;102048.73;1711855;82;21156;-72
2021/10/26 07:36:07;;;;;;;33.40;24.60;;;;;;;27.18;16.04;102046.13;1706467;82;21064;-71
2021/10/26 07:38:38;;;;;;;38.13;24.27;;;;;;;27.26;15.48;102043.00;1709324;82;21085;-69
2021/10/26 07:41:02;;;;;;;18.47;14.33;;;;;;;27.10;15.72;102050.03;1711068;82;21162;-70
2021/10/26 07:43:38;;;;;;;18.33;10.63;;;;;;;26.93;15.65;102046.06;1681939;82;21013;-69
2021/10/26 07:46:12;;;;;;;16.33;9.97;;;;;;;26.88;15.84;102048.16;1689256;82;21156;-71
2021/10/26 07:48:39;;;;;;;19.30;10.13;;;;;;;27.09;15.73;102047.09;1713959;82;20987;-69
2021/10/26 07:51:05;;;;;;;17.10;9.37;;;;;;;27.27;15.46;102041.41;1704829;82;21003;-70
2021/10/26 07:53:33;;;;;;;15.63;8.63;;;;;;;27.37;15.46;102049.55;1704801;82;20935;-70
2021/10/26 07:56:05;;;;;;;13.23;9.70;;;;;;;27.76;15.39;102048.61;1704668;82;21077;-69
2021/10/26 07:58:30;;;;;;;15.23;9.77;;;;;;;28.18;15.01;102041.96;1704082;82;21168;-68
2021/10/26 08:00:58;;;;;;;14.70;9.40;;;;;;;28.13;15.07;102040.59;1712260;82;21598;-69
2021/10/26 08:03:26;;;;;;;16.17;8.53;;;;;;;27.92;14.98;102042.33;1654477;85;20956;-71
2021/10/26 08:06:00;;;;;;;11.97;7.10;;;;;;;27.76;14.97;102049.41;1673792;84;21580;-71
2021/10/26 08:08:27;;;;;;;13.97;9.30;;;;;;;27.98;14.94;102047.19;1672249;84;20954;-72
2021/10/26 08:10:54;;;;;;;13.93;8.80;;;;;;;28.17;14.83;102051.62;1676091;84;21513;-67
2021/10/26 08:13:21;;;;;;;14.87;8.73;;;;;;;28.59;14.58;102045.73;1675025;84;22247;-71
2021/10/26 08:15:48;;;;;;;13.73;8.03;;;;;;;28.94;14.46;102043.47;1672401;83;21122;-69
2021/10/26 08:18:15;;;;;;;13.60;7.50;;;;;;;29.01;14.11;102052.12;1672795;84;21581;-70
2021/10/26 08:20:48;;;;;;;14.43;8.30;;;;;;;28.66;14.10;102049.53;1672270;84;21003;-68
2021/10/26 08:23:14;;;;;;;13.97;6.00;;;;;;;28.44;14.27;102055.03;1670395;84;21132;-72
2021/10/26 08:25:44;;;;;;;10.77;4.70;;;;;;;28.47;14.43;102053.19;1676054;84;21017;-71
2021/10/26 08:28:14;;;;;;;9.93;4.50;;;;;;;28.42;14.34;102050.48;1657561;84;21054;-71
2021/10/26 08:30:51;;;;;;;8.63;5.17;;;;;;;28.38;14.38;102053.95;1672842;84;21532;-67
2021/10/26 08:33:36;;;;;;;9.57;5.07;;;;;;;28.49;14.17;102045.70;1681562;84;21486;-71
2021/10/26 08:35:51;;;;;;;13.10;8.87;;;;;;;28.47;13.95;102042.45;1671308;84;21149;-68
2021/10/26 08:38:19;;;;;;;13.63;7.53;;;;;;;28.13;14.20;102044.62;1668969;84;21030;-66
2021/10/26 08:40:53;;;;;;;7.40;3.53;;;;;;;28.18;14.20;102039.28;1658326;84;21057;-73
2021/10/26 08:43:22;;;;;;;6.03;3.17;;;;;;;28.26;14.09;102041.50;1678022;84;21525;-71
2021/10/26 08:45:49;;;;;;;16.27;4.17;;;;;;;28.09;14.00;102026.89;1672505;84;21646;-66
2021/10/26 08:48:20;;;;;;;9.90;4.23;;;;;;;27.80;14.08;102038.45;1672641;84;21162;-70
2021/10/26 08:50:59;;;;;;;7.67;4.53;;;;;;;27.49;14.48;102039.22;1672623;83;21042;-74
2021/10/26 08:53:29;;;;;;;8.90;4.43;;;;;;;27.34;14.53;102031.84;1669213;84;21078;-68
2021/10/26 08:56:02;;;;;;;7.20;3.80;;;;;;;27.41;14.55;102033.79;1675362;84;21074;-72
2021/10/26 08:58:31;;;;;;;10.13;3.10;;;;;;;27.34;14.58;102029.16;1660509;84;20963;-70
2021/10/26 09:01:00;;;;;;;;;;;;;;;27.48;14.47;102022.88;1676276;84;21142;-70
2021/10/26 09:03:37;;;;;;;9.93;3.47;;;;;;;27.43;14.34;102024.16;1672428;84;20129;-71
2021/10/26 09:06:05;;;;;;;7.73;3.00;;;;;;;27.15;14.44;102013.97;1705093;82;20943;-70
2021/10/26 09:08:33;;;;;;;7.80;4.27;;;;;;;27.09;14.50;102013.63;1683390;82;20991;-72
2021/10/26 09:11:18;;;;;;;6.70;3.50;;;;;;;26.70;14.77;102012.34;1675089;83;20960;-73
2021/10/26 09:16:47;;;;;;;8.93;4.73;;;;;;;26.74;14.97;102010.78;1696766;82;21004;-69
2021/10/26 09:19:42;;;;;;;6.63;4.40;;;;;;;26.58;14.92;102011.66;1709472;82;22478;-72
2021/10/26 09:22:15;;;;;;;6.17;2.90;;;;;;;26.27;15.04;102007.19;1707874;82;21062;-69
2021/10/26 09:25:00;;;;;;;4.97;2.90;;;;;;;26.32;15.08;102005.92;1710551;82;21099;-68
2021/10/26 09:27:27;;;;;;;5.67;3.33;;;;;;;26.31;14.98;101990.14;1707867;82;22442;-69
2021/10/26 09:29:58;;;;;;;5.77;3.13;;;;;;;26.30;15.03;101987.19;1709141;82;21183;-68
2021/10/26 09:32:41;;;;;;;5.93;3.47;;;;;;;26.05;15.22;101988.95;1705547;82;21008;-69
2021/10/26 09:35:10;;;;;;;6.00;3.62;;;;;;;26.03;15.24;101984.39;1705015;82;21040;-69
2021/10/26 09:37:49;;;;;;;6.17;3.70;;;;;;;26.11;15.32;101972.75;1704643;82;21011;-68
2021/10/26 09:40:17;;;;;;;7.85;3.80;;;;;;;26.27;15.09;101972.44;1700888;82;22411;-66
2021/10/26 09:42:50;;;;;;;6.73;3.93;;;;;;;26.36;15.26;101969.61;1704638;82;21098;-70
2021/10/26 09:45:29;;;;;;;6.83;3.50;;;;;;;26.54;15.24;101969.08;1706111;81;21552;-68
2021/10/26 09:48:12;;;;;;;8.63;4.03;;;;;;;26.65;15.19;101961.46;1709635;82;20990;-73
2021/10/26 09:50:38;;;;;;;5.67;4.03;;;;;;;27.00;14.96;101958.91;1708352;82;21067;-68
2021/10/26 09:53:10;;;;;;;7.63;4.67;;;;;;;26.77;14.89;101960.80;1705146;82;21128;-68
2021/10/26 09:55:42;;;;;;;8.10;5.23;;;;;;;26.31;15.07;101955.37;1715407;82;21039;-69
2021/10/26 09:58:15;;;;;;;;;;;;;;;26.14;15.34;101956.77;1712684;82;21502;-68
2021/10/26 10:00:46;;;;;;;7.23;4.47;;;;;;;25.97;15.31;101964.78;1714087;82;20161;-71
2021/10/26 10:03:19;;;;;;;8.80;5.10;;;;;;;26.12;15.32;101961.53;1710273;82;20987;-67
2021/10/26 10:06:01;;;;;;;13.00;5.60;;;;;;;26.09;15.26;101956.14;1714993;82;22292;-68
2021/10/26 10:08:35;;;;;;;;;;;;;;;26.01;15.43;101957.89;1713341;82;20963;-69
2021/10/26 10:11:17;;;;;;;7.80;4.60;;;;;;;26.10;15.39;101950.27;1715010;82;20127;-72
2021/10/26 10:13:54;;;;;;;9.23;5.00;;;;;;;26.22;15.45;101944.84;1708641;82;21361;-69
2021/10/26 10:16:21;;;;;;;12.00;5.40;;;;;;;26.39;15.37;101939.71;1719465;82;20936;-69
2021/10/26 10:18:49;;;;;;;9.33;5.47;;;;;;;26.36;15.33;101936.19;1706197;82;21071;-67
2021/10/26 10:21:18;;;;;;;7.03;4.20;;;;;;;26.37;15.37;101919.11;1713080;82;20963;-72
2021/10/26 10:23:46;;;;;;;7.47;5.00;;;;;;;26.36;15.22;101922.82;1673012;84;20956;-71
2021/10/26 10:26:27;;;;;;;8.60;4.67;;;;;;;26.34;15.39;101916.92;1656779;85;21549;-71
2021/10/26 10:28:55;;;;;;;9.55;5.08;;;;;;;26.51;15.10;101913.41;1713263;82;22199;-67
2021/10/26 10:31:25;;;;;;;8.30;3.90;;;;;;;26.44;15.09;101902.36;1711107;82;21110;-69
2021/10/26 10:33:52;;;;;;;8.17;4.33;;;;;;;26.32;15.10;101898.17;1710383;82;21579;-70
2021/10/26 10:36:20;;;;;;;12.40;7.73;;;;;;;26.16;15.17;101895.84;1712577;82;21047;-70
2021/10/26 10:38:47;;;;;;;11.63;7.47;;;;;;;26.09;15.23;101887.19;1711516;82;21026;-70
2021/10/26 10:41:28;;;;;;;8.97;4.87;;;;;;;25.79;15.46;101886.23;1706493;82;21055;-71
2021/10/26 10:43:57;;;;;;;7.35;4.22;;;;;;;25.70;15.51;101884.48;1712560;82;21140;-70
2021/10/26 10:46:43;;;;;;;9.63;5.67;;;;;;;25.91;15.35;101879.75;1716289;82;20944;-70
2021/10/26 10:49:26;;;;;;;9.37;5.57;;;;;;;25.85;15.31;101878.59;1706445;82;20878;-70
2021/10/26 10:52:05;;;;;;;10.07;5.53;;;;;;;25.43;15.42;101870.98;1706524;82;21102;-69
2021/10/26 10:54:43;;;;;;;8.70;5.10;;;;;;;25.04;15.98;101871.34;1706594;82;21043;-70
2021/10/26 10:57:34;;;;;;;8.13;5.10;;;;;;;25.24;16.05;101867.22;1706356;82;21905;-70
2021/10/26 11:00:21;;;;;;;9.37;5.80;;;;;;;25.38;15.76;101865.05;1673711;83;20985;-69
2021/10/26 11:02:53;;;;;;;8.37;4.90;;;;;;;24.97;15.86;101865.66;1704474;82;21055;-69
2021/10/26 11:05:36;;;;;;;;;;;;;;;24.78;16.06;101864.77;1686294;83;21010;-68
2021/10/26 11:08:12;;;;;;;8.00;4.70;;;;;;;24.69;16.32;101856.33;1676198;84;20222;-70
2021/10/26 11:10:57;;;;;;;9.43;5.03;;;;;;;24.66;16.30;101854.97;1678515;84;21154;-70
2021/10/26 11:13:35;;;;;;;9.50;5.50;;;;;;;24.82;16.34;101853.91;1669110;84;20942;-71
2021/10/26 11:16:03;;;;;;;12.70;6.10;;;;;;;25.01;16.25;101844.65;1676190;83;21132;-70
2021/10/26 11:18:47;;;;;;;9.33;5.20;;;;;;;25.11;16.12;101837.36;1675873;83;21002;-71
2021/10/26 11:21:29;;;;;;;9.60;5.53;;;;;;;25.15;15.79;101842.48;1672362;84;22395;-69
2021/10/26 11:24:07;;;;;;;8.57;5.70;;;;;;;25.00;15.58;101843.01;1672374;83;21061;-70
2021/10/26 11:26:42;;;;;;;10.60;6.47;;;;;;;24.80;15.61;101837.33;1663754;85;21537;-69
2021/10/26 11:29:29;;;;;;;14.13;6.20;;;;;;;24.64;15.89;101838.38;1677153;83;21053;-69
2021/10/26 11:31:56;;;;;;;14.63;6.80;;;;;;;24.65;16.07;101835.19;1679541;83;22377;-69
2021/10/26 11:34:27;;;;;;;12.13;7.33;;;;;;;24.72;16.09;101832.66;1678920;84;21070;-69
2021/10/26 11:37:07;;;;;;;12.03;6.87;;;;;;;24.57;16.10;101828.38;1677045;84;21163;-69